Terminal Aerodrome Forecast
Issued by NWS

Home | Current Version | Previous Version | Text Only | Print | Product List | Glossary On
Versions: 1 2 3 4 5 6 7 8 9 10 11 12 13 14 15 16 17 18 19
000
FTUS42 KILM 201300 CCB
TAFCRE
TAF COR
KCRE 201353Z 2012/2112 01012G25KT 6SM -RA SCT015 BKN040
     FM201600 02015G25KT 5SM -RA SCT008 BKN012 OVC035
     FM202200 01015G25KT P6SM VCSH SCT015 OVC040
     FM210300 03014G20KT P6SM VCSH BKN015 OVC040
     FM210500 03012G18KT P6SM BKN009 OVC025=

USA.gov is the U.S. government's official web portal to all federal, state and local government web resources and services.